createdAt,value
2017-07-20T18:26:43.424Z,59.40
2017-07-20T18:29:10.882Z,60.00
2017-07-20T18:31:38.347Z,59.90
2017-07-20T18:34:06.091Z,60.40
2017-07-20T18:36:33.559Z,59.80
2017-07-20T18:39:01.022Z,60.20
2017-07-20T18:41:28.519Z,60.70
2017-07-20T18:43:56.768Z,61.30
2017-07-20T18:46:24.346Z,61.20
2017-07-20T18:48:51.794Z,62.30
2017-07-20T18:51:19.263Z,62.80
2017-07-20T18:53:47.520Z,63.50
2017-07-20T18:56:14.992Z,63.50
2017-07-20T18:58:42.543Z,63.80
2017-07-20T19:01:10.011Z,64.00
2017-07-20T19:03:37.567Z,64.00
2017-07-20T19:06:05.031Z,65.00
2017-07-20T19:08:32.597Z,66.00
2017-07-20T19:11:00.066Z,66.70
2017-07-20T19:13:28.295Z,67.60
2017-07-20T19:15:55.871Z,67.50
2017-07-20T19:18:23.342Z,67.60
2017-07-20T19:20:50.832Z,68.30
2017-07-20T19:23:18.288Z,68.30
2017-07-20T19:25:45.806Z,68.70
2017-07-20T19:28:13.263Z,69.30
2017-07-20T19:30:40.818Z,69.90
2017-07-20T19:33:08.384Z,70.40
2017-07-20T19:35:35.951Z,70.20
2017-07-20T19:38:03.418Z,70.20
2017-07-20T19:40:31.675Z,70.70
2017-07-20T19:42:59.149Z,70.60
2017-07-20T19:45:26.728Z,70.60
2017-07-20T19:47:54.965Z,71.20
2017-07-20T19:50:22.423Z,71.10
2017-07-20T19:52:49.886Z,71.20
2017-07-20T19:55:17.450Z,71.60
2017-07-20T19:57:45.007Z,71.50
2017-07-20T20:00:12.470Z,71.70
2017-07-20T20:02:40.031Z,71.90
2017-07-20T20:05:07.487Z,72.00
2017-07-20T20:07:34.983Z,72.00
2017-07-20T20:10:02.467Z,72.50
2017-07-20T20:12:29.985Z,72.40
2017-07-20T20:14:58.233Z,72.80
2017-07-20T20:17:25.702Z,72.70
2017-07-20T20:19:53.259Z,73.00
2017-07-20T20:22:20.759Z,73.20
2017-07-20T20:24:48.228Z,73.60
2017-07-20T20:27:15.739Z,73.80
2017-07-20T20:29:43.298Z,74.40
2017-07-20T20:32:10.755Z,74.70
2017-07-20T20:34:38.232Z,75.20
2017-07-20T20:37:06.471Z,75.10
2017-07-20T20:39:34.048Z,75.00
2017-07-20T20:42:01.507Z,75.00
2017-07-20T20:44:28.964Z,75.30
2017-07-20T20:46:56.435Z,75.60
2017-07-20T20:49:24.704Z,76.10
2017-07-20T20:51:52.259Z,76.00
2017-07-20T20:54:19.714Z,76.00
2017-07-20T20:56:47.300Z,76.10
2017-07-20T20:59:15.523Z,76.60
2017-07-20T21:01:43.027Z,75.80
2017-07-20T21:04:10.491Z,75.30
2017-07-20T21:06:38.033Z,76.00
2017-07-20T21:09:05.490Z,76.00
2017-07-20T21:11:33.050Z,76.00
2017-07-20T21:14:00.519Z,75.90
2017-07-20T21:16:27.981Z,75.90
2017-07-20T21:18:55.451Z,75.80
2017-07-20T21:21:23.705Z,76.00
2017-07-20T21:23:51.258Z,75.90
2017-07-20T21:26:18.727Z,76.10
2017-07-20T21:28:51.570Z,76.40
2017-07-20T21:31:19.980Z,76.50
2017-07-20T21:33:47.452Z,77.80
2017-07-20T21:36:14.919Z,77.20
2017-07-20T21:38:43.146Z,77.30
2017-07-20T21:41:10.642Z,77.30
2017-07-20T21:43:38.098Z,77.60
2017-07-20T21:46:05.567Z,77.40
2017-07-20T21:48:33.115Z,77.50
2017-07-20T21:51:00.578Z,77.70
2017-07-20T21:53:28.038Z,77.70
2017-07-20T21:55:55.583Z,78.00
2017-07-20T21:58:23.047Z,77.90
2017-07-20T22:00:50.603Z,78.70
2017-07-20T22:03:18.171Z,78.20
2017-07-20T22:05:45.722Z,78.30
2017-07-20T22:08:13.288Z,78.40
2017-07-20T22:10:40.786Z,78.60
2017-07-20T22:13:08.263Z,79.20
2017-07-20T22:15:35.765Z,79.30
2017-07-20T22:18:03.325Z,79.20
2017-07-20T22:20:30.779Z,78.90
2017-07-20T22:22:58.344Z,78.90
2017-07-20T22:25:25.802Z,79.00
2017-07-20T22:27:53.288Z,79.30
2017-07-20T22:30:21.515Z,79.70
2017-07-20T22:32:48.982Z,79.60
2017-07-20T22:35:16.462Z,80.10
2017-07-20T22:37:44.028Z,80.40
2017-07-20T22:40:11.487Z,80.40
2017-07-20T22:42:39.740Z,80.60
2017-07-20T22:45:07.209Z,80.50
2017-07-20T22:47:34.768Z,80.20
2017-07-20T22:50:02.324Z,79.70
2017-07-20T22:52:29.790Z,79.20
2017-07-20T22:54:57.242Z,79.20
2017-07-20T22:57:25.119Z,79.30
2017-07-20T22:59:52.581Z,79.20
2017-07-20T23:02:20.811Z,78.70
2017-07-20T23:04:48.306Z,79.00
2017-07-20T23:07:15.858Z,79.10
2017-07-20T23:09:43.322Z,79.20
2017-07-20T23:12:10.795Z,78.70
2017-07-20T23:14:38.259Z,78.70
2017-07-20T23:17:06.510Z,78.70
2017-07-20T23:19:34.066Z,78.70
2017-07-20T23:22:01.527Z,78.70
2017-07-20T23:24:29.002Z,78.50
2017-07-20T23:26:57.364Z,78.60
2017-07-20T23:29:24.923Z,78.30
2017-07-20T23:31:52.382Z,78.30
2017-07-20T23:34:19.851Z,78.50
2017-07-20T23:36:47.331Z,77.90
2017-07-20T23:39:15.577Z,76.30
2017-07-20T23:41:43.038Z,76.30
2017-07-20T23:44:10.591Z,76.00
2017-07-20T23:46:38.160Z,75.70
2017-07-20T23:49:05.630Z,75.20
2017-07-20T23:51:33.858Z,75.20
2017-07-20T23:54:01.356Z,75.10
2017-07-20T23:56:28.827Z,75.10
2017-07-20T23:58:57.061Z,74.80
